sensor_id;sensor_type;location;lat;lon;timestamp;P1;durP1;ratioP1;P2;durP2;ratioP2
6259;SDS011;3163;51.516;4.000;2022-12-07T00:01:31;2.17;;;0.70;;
6259;SDS011;3163;51.516;4.000;2022-12-07T00:03:58;2.40;;;0.87;;
6259;SDS011;3163;51.516;4.000;2022-12-07T00:06:38;1.10;;;0.40;;
6259;SDS011;3163;51.516;4.000;2022-12-07T00:09:04;0.40;;;0.40;;
6259;SDS011;3163;51.516;4.000;2022-12-07T00:11:31;0.60;;;0.50;;
6259;SDS011;3163;51.516;4.000;2022-12-07T00:13:58;6.43;;;0.60;;
6259;SDS011;3163;51.516;4.000;2022-12-07T00:16:25;1.37;;;0.73;;
6259;SDS011;3163;51.516;4.000;2022-12-07T00:18:51;1.17;;;0.70;;
6259;SDS011;3163;51.516;4.000;2022-12-07T00:21:18;3.87;;;0.53;;
6259;SDS011;3163;51.516;4.000;2022-12-07T00:23:45;2.77;;;0.40;;
6259;SDS011;3163;51.516;4.000;2022-12-07T00:26:13;0.60;;;0.60;;
6259;SDS011;3163;51.516;4.000;2022-12-07T00:28:39;2.37;;;0.60;;
6259;SDS011;3163;51.516;4.000;2022-12-07T00:31:07;0.53;;;0.50;;
6259;SDS011;3163;51.516;4.000;2022-12-07T00:33:33;0.93;;;0.90;;
6259;SDS011;3163;51.516;4.000;2022-12-07T00:36:00;2.20;;;0.90;;
6259;SDS011;3163;51.516;4.000;2022-12-07T00:38:27;0.40;;;0.40;;
6259;SDS011;3163;51.516;4.000;2022-12-07T00:40:55;0.70;;;0.70;;
6259;SDS011;3163;51.516;4.000;2022-12-07T00:43:21;0.43;;;0.40;;
6259;SDS011;3163;51.516;4.000;2022-12-07T00:45:47;1.13;;;0.40;;
6259;SDS011;3163;51.516;4.000;2022-12-07T00:48:13;2.93;;;0.60;;
6259;SDS011;3163;51.516;4.000;2022-12-07T00:50:39;0.57;;;0.30;;
6259;SDS011;3163;51.516;4.000;2022-12-07T00:53:05;0.57;;;0.20;;
6259;SDS011;3163;51.516;4.000;2022-12-07T00:55:34;1.87;;;0.53;;
6259;SDS011;3163;51.516;4.000;2022-12-07T00:58:00;1.67;;;0.47;;
6259;SDS011;3163;51.516;4.000;2022-12-07T01:00:26;0.23;;;0.23;;
6259;SDS011;3163;51.516;4.000;2022-12-07T01:02:52;1.47;;;0.50;;
6259;SDS011;3163;51.516;4.000;2022-12-07T01:05:18;1.03;;;0.47;;
6259;SDS011;3163;51.516;4.000;2022-12-07T01:07:45;0.83;;;0.63;;
6259;SDS011;3163;51.516;4.000;2022-12-07T01:10:11;0.87;;;0.50;;
6259;SDS011;3163;51.516;4.000;2022-12-07T01:12:37;0.40;;;0.40;;
6259;SDS011;3163;51.516;4.000;2022-12-07T01:15:04;0.20;;;0.20;;
6259;SDS011;3163;51.516;4.000;2022-12-07T01:17:30;0.10;;;0.10;;
6259;SDS011;3163;51.516;4.000;2022-12-07T01:19:56;2.37;;;0.20;;
6259;SDS011;3163;51.516;4.000;2022-12-07T01:22:22;0.23;;;0.13;;
6259;SDS011;3163;51.516;4.000;2022-12-07T01:24:48;0.30;;;0.30;;
6259;SDS011;3163;51.516;4.000;2022-12-07T01:27:14;1.10;;;0.50;;
6259;SDS011;3163;51.516;4.000;2022-12-07T01:29:40;0.93;;;0.60;;
6259;SDS011;3163;51.516;4.000;2022-12-07T01:32:06;1.07;;;0.37;;
6259;SDS011;3163;51.516;4.000;2022-12-07T01:34:32;0.93;;;0.43;;
6259;SDS011;3163;51.516;4.000;2022-12-07T01:36:58;2.90;;;0.60;;
6259;SDS011;3163;51.516;4.000;2022-12-07T01:39:24;1.37;;;0.50;;
6259;SDS011;3163;51.516;4.000;2022-12-07T01:41:51;1.80;;;0.40;;
6259;SDS011;3163;51.516;4.000;2022-12-07T01:44:29;0.20;;;0.20;;
6259;SDS011;3163;51.516;4.000;2022-12-07T01:46:57;0.13;;;0.13;;
6259;SDS011;3163;51.516;4.000;2022-12-07T01:54:49;2.47;;;0.40;;
6259;SDS011;3163;51.516;4.000;2022-12-07T01:57:16;0.40;;;0.40;;
6259;SDS011;3163;51.516;4.000;2022-12-07T01:59:43;1.43;;;0.47;;
6259;SDS011;3163;51.516;4.000;2022-12-07T02:02:13;0.57;;;0.30;;
6259;SDS011;3163;51.516;4.000;2022-12-07T02:04:41;2.30;;;0.57;;
6259;SDS011;3163;51.516;4.000;2022-12-07T02:07:07;0.20;;;0.20;;
6259;SDS011;3163;51.516;4.000;2022-12-07T02:09:34;2.53;;;0.40;;
6259;SDS011;3163;51.516;4.000;2022-12-07T02:12:00;1.23;;;0.43;;
6259;SDS011;3163;51.516;4.000;2022-12-07T02:14:26;1.33;;;0.40;;
6259;SDS011;3163;51.516;4.000;2022-12-07T02:29:40;0.47;;;0.37;;
6259;SDS011;3163;51.516;4.000;2022-12-07T02:32:19;0.50;;;0.40;;
6259;SDS011;3163;51.516;4.000;2022-12-07T02:34:59;2.23;;;0.60;;
6259;SDS011;3163;51.516;4.000;2022-12-07T02:40:09;1.20;;;0.40;;
6259;SDS011;3163;51.516;4.000;2022-12-07T02:42:37;0.20;;;0.20;;
6259;SDS011;3163;51.516;4.000;2022-12-07T02:45:05;1.60;;;0.60;;
6259;SDS011;3163;51.516;4.000;2022-12-07T02:47:31;0.10;;;0.10;;
6259;SDS011;3163;51.516;4.000;2022-12-07T02:49:59;0.20;;;0.20;;
6259;SDS011;3163;51.516;4.000;2022-12-07T02:52:25;0.10;;;0.10;;
6259;SDS011;3163;51.516;4.000;2022-12-07T02:54:51;0.57;;;0.20;;
6259;SDS011;3163;51.516;4.000;2022-12-07T03:10:08;0.93;;;0.30;;
6259;SDS011;3163;51.516;4.000;2022-12-07T03:13:19;0.20;;;0.10;;
6259;SDS011;3163;51.516;4.000;2022-12-07T03:15:33;0.10;;;0.10;;
6259;SDS011;3163;51.516;4.000;2022-12-07T03:17:59;0.40;;;0.40;;
6259;SDS011;3163;51.516;4.000;2022-12-07T03:20:26;0.13;;;0.13;;
6259;SDS011;3163;51.516;4.000;2022-12-07T03:22:54;0.73;;;0.73;;
6259;SDS011;3163;51.516;4.000;2022-12-07T03:25:22;0.47;;;0.20;;
6259;SDS011;3163;51.516;4.000;2022-12-07T03:30:21;1.10;;;0.40;;
6259;SDS011;3163;51.516;4.000;2022-12-07T03:32:50;0.10;;;0.10;;
6259;SDS011;3163;51.516;4.000;2022-12-07T03:37:49;0.67;;;0.40;;
6259;SDS011;3163;51.516;4.000;2022-12-07T03:42:47;0.90;;;0.40;;
6259;SDS011;3163;51.516;4.000;2022-12-07T03:45:13;0.43;;;0.20;;
6259;SDS011;3163;51.516;4.000;2022-12-07T03:47:47;0.83;;;0.20;;
6259;SDS011;3163;51.516;4.000;2022-12-07T03:50:31;1.70;;;0.30;;
6259;SDS011;3163;51.516;4.000;2022-12-07T03:52:59;0.80;;;0.33;;
6259;SDS011;3163;51.516;4.000;2022-12-07T03:55:32;3.17;;;0.50;;
6259;SDS011;3163;51.516;4.000;2022-12-07T03:58:03;0.70;;;0.50;;
6259;SDS011;3163;51.516;4.000;2022-12-07T04:00:30;0.20;;;0.20;;
6259;SDS011;3163;51.516;4.000;2022-12-07T04:02:56;1.83;;;0.50;;
6259;SDS011;3163;51.516;4.000;2022-12-07T04:05:22;0.70;;;0.70;;
6259;SDS011;3163;51.516;4.000;2022-12-07T04:07:48;0.23;;;0.23;;
6259;SDS011;3163;51.516;4.000;2022-12-07T04:10:14;0.63;;;0.20;;
6259;SDS011;3163;51.516;4.000;2022-12-07T04:12:40;0.13;;;0.13;;
6259;SDS011;3163;51.516;4.000;2022-12-07T04:15:06;0.20;;;0.20;;
6259;SDS011;3163;51.516;4.000;2022-12-07T04:17:32;1.47;;;0.23;;
6259;SDS011;3163;51.516;4.000;2022-12-07T04:19:58;1.90;;;0.30;;
6259;SDS011;3163;51.516;4.000;2022-12-07T04:22:24;0.37;;;0.20;;
6259;SDS011;3163;51.516;4.000;2022-12-07T04:24:50;0.47;;;0.47;;
6259;SDS011;3163;51.516;4.000;2022-12-07T04:27:16;2.07;;;0.37;;
6259;SDS011;3163;51.516;4.000;2022-12-07T04:29:42;0.30;;;0.20;;
6259;SDS011;3163;51.516;4.000;2022-12-07T04:32:08;2.17;;;0.20;;
6259;SDS011;3163;51.516;4.000;2022-12-07T04:34:34;1.27;;;0.50;;
6259;SDS011;3163;51.516;4.000;2022-12-07T04:37:00;0.37;;;0.37;;
6259;SDS011;3163;51.516;4.000;2022-12-07T04:39:27;1.60;;;0.60;;
6259;SDS011;3163;51.516;4.000;2022-12-07T04:41:53;0.30;;;0.30;;
6259;SDS011;3163;51.516;4.000;2022-12-07T04:44:20;2.60;;;0.43;;
6259;SDS011;3163;51.516;4.000;2022-12-07T04:46:46;0.20;;;0.20;;
6259;SDS011;3163;51.516;4.000;2022-12-07T04:49:13;2.30;;;0.50;;
6259;SDS011;3163;51.516;4.000;2022-12-07T04:51:39;0.43;;;0.30;;
6259;SDS011;3163;51.516;4.000;2022-12-07T04:54:05;0.37;;;0.37;;
6259;SDS011;3163;51.516;4.000;2022-12-07T04:56:31;0.10;;;0.10;;
6259;SDS011;3163;51.516;4.000;2022-12-07T04:58:57;2.53;;;0.30;;
6259;SDS011;3163;51.516;4.000;2022-12-07T05:01:23;0.20;;;0.20;;
6259;SDS011;3163;51.516;4.000;2022-12-07T05:03:50;0.13;;;0.13;;
6259;SDS011;3163;51.516;4.000;2022-12-07T05:06:16;0.20;;;0.20;;
6259;SDS011;3163;51.516;4.000;2022-12-07T05:08:42;2.47;;;0.40;;
6259;SDS011;3163;51.516;4.000;2022-12-07T05:11:08;0.40;;;0.13;;
6259;SDS011;3163;51.516;4.000;2022-12-07T05:13:55;0.20;;;0.20;;
6259;SDS011;3163;51.516;4.000;2022-12-07T05:16:21;0.40;;;0.20;;
6259;SDS011;3163;51.516;4.000;2022-12-07T05:18:47;2.87;;;0.20;;
6259;SDS011;3163;51.516;4.000;2022-12-07T05:21:13;0.30;;;0.30;;
6259;SDS011;3163;51.516;4.000;2022-12-07T05:23:39;0.20;;;0.20;;
6259;SDS011;3163;51.516;4.000;2022-12-07T05:26:05;1.90;;;0.20;;
6259;SDS011;3163;51.516;4.000;2022-12-07T05:28:31;0.43;;;0.30;;
6259;SDS011;3163;51.516;4.000;2022-12-07T05:30:57;0.43;;;0.20;;
6259;SDS011;3163;51.516;4.000;2022-12-07T05:33:23;0.30;;;0.30;;
6259;SDS011;3163;51.516;4.000;2022-12-07T05:35:49;0.27;;;0.27;;
6259;SDS011;3163;51.516;4.000;2022-12-07T05:38:15;1.53;;;0.40;;
6259;SDS011;3163;51.516;4.000;2022-12-07T05:40:41;0.50;;;0.30;;
6259;SDS011;3163;51.516;4.000;2022-12-07T05:43:07;1.43;;;0.40;;
6259;SDS011;3163;51.516;4.000;2022-12-07T05:45:33;0.83;;;0.40;;
6259;SDS011;3163;51.516;4.000;2022-12-07T05:47:59;1.70;;;0.30;;
6259;SDS011;3163;51.516;4.000;2022-12-07T05:50:25;0.20;;;0.20;;
6259;SDS011;3163;51.516;4.000;2022-12-07T05:52:51;2.63;;;0.43;;
6259;SDS011;3163;51.516;4.000;2022-12-07T05:55:17;2.67;;;0.30;;
6259;SDS011;3163;51.516;4.000;2022-12-07T05:57:42;1.90;;;0.20;;
6259;SDS011;3163;51.516;4.000;2022-12-07T06:00:28;0.30;;;0.30;;
6259;SDS011;3163;51.516;4.000;2022-12-07T06:02:54;2.63;;;0.20;;
6259;SDS011;3163;51.516;4.000;2022-12-07T06:05:20;0.57;;;0.40;;
6259;SDS011;3163;51.516;4.000;2022-12-07T06:07:46;0.40;;;0.27;;
6259;SDS011;3163;51.516;4.000;2022-12-07T06:10:12;0.90;;;0.40;;
6259;SDS011;3163;51.516;4.000;2022-12-07T06:12:38;2.03;;;0.53;;
6259;SDS011;3163;51.516;4.000;2022-12-07T06:15:07;1.80;;;0.47;;
6259;SDS011;3163;51.516;4.000;2022-12-07T06:17:33;1.90;;;0.60;;
6259;SDS011;3163;51.516;4.000;2022-12-07T06:19:59;0.10;;;0.10;;
6259;SDS011;3163;51.516;4.000;2022-12-07T06:22:25;0.30;;;0.30;;
6259;SDS011;3163;51.516;4.000;2022-12-07T06:24:51;0.40;;;0.40;;
6259;SDS011;3163;51.516;4.000;2022-12-07T06:27:17;0.30;;;0.30;;
6259;SDS011;3163;51.516;4.000;2022-12-07T06:29:43;2.03;;;0.50;;
6259;SDS011;3163;51.516;4.000;2022-12-07T06:32:09;1.60;;;0.37;;
6259;SDS011;3163;51.516;4.000;2022-12-07T06:34:36;0.27;;;0.27;;
6259;SDS011;3163;51.516;4.000;2022-12-07T06:37:02;1.67;;;0.40;;
6259;SDS011;3163;51.516;4.000;2022-12-07T06:39:28;0.63;;;0.27;;
6259;SDS011;3163;51.516;4.000;2022-12-07T06:41:54;0.20;;;0.20;;
6259;SDS011;3163;51.516;4.000;2022-12-07T06:44:21;0.20;;;0.20;;
6259;SDS011;3163;51.516;4.000;2022-12-07T06:46:47;1.13;;;0.30;;
6259;SDS011;3163;51.516;4.000;2022-12-07T06:49:14;0.77;;;0.40;;
6259;SDS011;3163;51.516;4.000;2022-12-07T06:51:40;0.30;;;0.30;;
6259;SDS011;3163;51.516;4.000;2022-12-07T06:54:07;3.63;;;0.50;;
6259;SDS011;3163;51.516;4.000;2022-12-07T06:56:33;0.40;;;0.30;;
6259;SDS011;3163;51.516;4.000;2022-12-07T06:58:59;0.10;;;0.10;;
6259;SDS011;3163;51.516;4.000;2022-12-07T07:01:25;1.50;;;0.30;;
6259;SDS011;3163;51.516;4.000;2022-12-07T07:03:51;0.30;;;0.30;;
6259;SDS011;3163;51.516;4.000;2022-12-07T07:06:17;0.30;;;0.20;;
6259;SDS011;3163;51.516;4.000;2022-12-07T07:08:43;1.30;;;0.70;;
6259;SDS011;3163;51.516;4.000;2022-12-07T07:11:11;0.77;;;0.47;;
6259;SDS011;3163;51.516;4.000;2022-12-07T07:13:37;0.50;;;0.20;;
6259;SDS011;3163;51.516;4.000;2022-12-07T07:16:03;0.40;;;0.40;;
6259;SDS011;3163;51.516;4.000;2022-12-07T07:18:29;1.53;;;0.70;;
6259;SDS011;3163;51.516;4.000;2022-12-07T07:20:55;1.93;;;0.30;;
6259;SDS011;3163;51.516;4.000;2022-12-07T07:23:21;0.73;;;0.40;;
6259;SDS011;3163;51.516;4.000;2022-12-07T07:25:47;0.20;;;0.20;;
6259;SDS011;3163;51.516;4.000;2022-12-07T07:28:14;0.23;;;0.23;;
6259;SDS011;3163;51.516;4.000;2022-12-07T07:30:40;0.30;;;0.30;;
6259;SDS011;3163;51.516;4.000;2022-12-07T07:33:06;0.93;;;0.50;;
6259;SDS011;3163;51.516;4.000;2022-12-07T07:35:33;0.53;;;0.53;;
6259;SDS011;3163;51.516;4.000;2022-12-07T07:37:59;2.43;;;0.40;;
6259;SDS011;3163;51.516;4.000;2022-12-07T07:40:25;1.33;;;0.77;;
6259;SDS011;3163;51.516;4.000;2022-12-07T07:42:53;2.83;;;0.60;;
6259;SDS011;3163;51.516;4.000;2022-12-07T07:45:20;1.83;;;0.40;;
6259;SDS011;3163;51.516;4.000;2022-12-07T07:47:46;0.50;;;0.43;;
6259;SDS011;3163;51.516;4.000;2022-12-07T07:50:13;0.67;;;0.30;;
6259;SDS011;3163;51.516;4.000;2022-12-07T07:52:39;1.33;;;0.33;;
6259;SDS011;3163;51.516;4.000;2022-12-07T07:55:05;0.47;;;0.20;;
6259;SDS011;3163;51.516;4.000;2022-12-07T07:57:33;0.30;;;0.30;;
6259;SDS011;3163;51.516;4.000;2022-12-07T07:59:59;0.30;;;0.30;;
6259;SDS011;3163;51.516;4.000;2022-12-07T08:02:25;1.33;;;0.93;;
6259;SDS011;3163;51.516;4.000;2022-12-07T08:04:54;1.47;;;1.13;;
6259;SDS011;3163;51.516;4.000;2022-12-07T08:07:20;2.93;;;1.23;;
6259;SDS011;3163;51.516;4.000;2022-12-07T08:09:46;1.50;;;1.30;;
6259;SDS011;3163;51.516;4.000;2022-12-07T08:12:12;3.87;;;1.10;;
6259;SDS011;3163;51.516;4.000;2022-12-07T08:14:38;2.77;;;0.93;;
6259;SDS011;3163;51.516;4.000;2022-12-07T08:17:04;1.57;;;0.90;;
6259;SDS011;3163;51.516;4.000;2022-12-07T08:19:30;1.07;;;1.07;;
6259;SDS011;3163;51.516;4.000;2022-12-07T08:21:56;3.70;;;1.30;;
6259;SDS011;3163;51.516;4.000;2022-12-07T08:24:23;2.90;;;1.10;;
6259;SDS011;3163;51.516;4.000;2022-12-07T08:26:50;5.70;;;1.43;;
6259;SDS011;3163;51.516;4.000;2022-12-07T08:29:16;2.80;;;0.73;;
6259;SDS011;3163;51.516;4.000;2022-12-07T08:31:42;1.70;;;1.07;;
6259;SDS011;3163;51.516;4.000;2022-12-07T08:34:10;0.97;;;0.90;;
6259;SDS011;3163;51.516;4.000;2022-12-07T08:36:36;2.73;;;1.10;;
6259;SDS011;3163;51.516;4.000;2022-12-07T08:39:02;1.53;;;1.17;;
6259;SDS011;3163;51.516;4.000;2022-12-07T08:41:29;0.90;;;0.90;;
6259;SDS011;3163;51.516;4.000;2022-12-07T08:43:55;3.40;;;1.27;;
6259;SDS011;3163;51.516;4.000;2022-12-07T08:46:23;0.87;;;0.83;;
6259;SDS011;3163;51.516;4.000;2022-12-07T08:48:57;2.27;;;1.30;;
6259;SDS011;3163;51.516;4.000;2022-12-07T08:51:24;2.93;;;1.27;;
6259;SDS011;3163;51.516;4.000;2022-12-07T08:53:50;0.90;;;0.90;;
6259;SDS011;3163;51.516;4.000;2022-12-07T08:56:18;1.37;;;1.00;;
6259;SDS011;3163;51.516;4.000;2022-12-07T08:58:44;0.90;;;0.90;;
6259;SDS011;3163;51.516;4.000;2022-12-07T09:01:10;0.90;;;0.90;;
6259;SDS011;3163;51.516;4.000;2022-12-07T09:03:36;1.73;;;0.90;;
6259;SDS011;3163;51.516;4.000;2022-12-07T09:06:02;2.23;;;1.00;;
6259;SDS011;3163;51.516;4.000;2022-12-07T09:08:36;3.00;;;1.20;;
6259;SDS011;3163;51.516;4.000;2022-12-07T09:11:02;1.40;;;0.80;;
6259;SDS011;3163;51.516;4.000;2022-12-07T09:13:28;1.30;;;1.30;;
6259;SDS011;3163;51.516;4.000;2022-12-07T09:15:54;0.30;;;0.30;;
6259;SDS011;3163;51.516;4.000;2022-12-07T09:18:20;0.40;;;0.40;;
6259;SDS011;3163;51.516;4.000;2022-12-07T09:20:46;0.43;;;0.43;;
6259;SDS011;3163;51.516;4.000;2022-12-07T09:23:12;0.63;;;0.63;;
6259;SDS011;3163;51.516;4.000;2022-12-07T09:25:38;1.03;;;1.03;;
6259;SDS011;3163;51.516;4.000;2022-12-07T09:28:04;1.47;;;1.03;;
6259;SDS011;3163;51.516;4.000;2022-12-07T09:30:30;0.77;;;0.67;;
6259;SDS011;3163;51.516;4.000;2022-12-07T09:32:56;1.03;;;0.90;;
6259;SDS011;3163;51.516;4.000;2022-12-07T09:35:25;1.17;;;0.73;;
6259;SDS011;3163;51.516;4.000;2022-12-07T09:37:51;1.27;;;0.73;;
6259;SDS011;3163;51.516;4.000;2022-12-07T09:40:17;2.43;;;0.90;;
6259;SDS011;3163;51.516;4.000;2022-12-07T09:42:45;2.23;;;0.57;;
6259;SDS011;3163;51.516;4.000;2022-12-07T09:45:46;5.43;;;1.07;;
6259;SDS011;3163;51.516;4.000;2022-12-07T09:48:05;0.80;;;0.73;;
6259;SDS011;3163;51.516;4.000;2022-12-07T09:50:34;1.07;;;0.83;;
6259;SDS011;3163;51.516;4.000;2022-12-07T09:53:08;0.53;;;0.53;;
6259;SDS011;3163;51.516;4.000;2022-12-07T09:55:35;1.40;;;0.80;;
6259;SDS011;3163;51.516;4.000;2022-12-07T09:58:02;0.53;;;0.53;;
6259;SDS011;3163;51.516;4.000;2022-12-07T10:00:29;1.10;;;0.70;;
6259;SDS011;3163;51.516;4.000;2022-12-07T10:05:23;1.00;;;0.50;;
6259;SDS011;3163;51.516;4.000;2022-12-07T10:07:50;1.20;;;0.60;;
6259;SDS011;3163;51.516;4.000;2022-12-07T10:10:34;2.80;;;0.80;;
6259;SDS011;3163;51.516;4.000;2022-12-07T10:13:07;0.53;;;0.53;;
6259;SDS011;3163;51.516;4.000;2022-12-07T10:15:53;0.87;;;0.60;;
6259;SDS011;3163;51.516;4.000;2022-12-07T10:18:21;0.47;;;0.47;;
6259;SDS011;3163;51.516;4.000;2022-12-07T10:20:59;0.93;;;0.47;;
6259;SDS011;3163;51.516;4.000;2022-12-07T10:23:25;0.47;;;0.40;;
6259;SDS011;3163;51.516;4.000;2022-12-07T10:25:51;1.43;;;0.80;;
6259;SDS011;3163;51.516;4.000;2022-12-07T10:28:19;0.50;;;0.50;;
6259;SDS011;3163;51.516;4.000;2022-12-07T10:31:15;0.53;;;0.53;;
6259;SDS011;3163;51.516;4.000;2022-12-07T10:35:58;1.30;;;0.70;;
6259;SDS011;3163;51.516;4.000;2022-12-07T10:38:25;0.63;;;0.60;;
6259;SDS011;3163;51.516;4.000;2022-12-07T10:41:04;0.57;;;0.57;;
6259;SDS011;3163;51.516;4.000;2022-12-07T10:43:31;0.43;;;0.43;;
6259;SDS011;3163;51.516;4.000;2022-12-07T10:48:29;0.40;;;0.30;;
6259;SDS011;3163;51.516;4.000;2022-12-07T10:51:13;0.20;;;0.20;;
6259;SDS011;3163;51.516;4.000;2022-12-07T10:59:36;0.53;;;0.53;;
6259;SDS011;3163;51.516;4.000;2022-12-07T11:12:47;0.60;;;0.57;;
6259;SDS011;3163;51.516;4.000;2022-12-07T11:36:37;1.30;;;0.70;;
6259;SDS011;3163;51.516;4.000;2022-12-07T11:39:05;0.47;;;0.30;;
6259;SDS011;3163;51.516;4.000;2022-12-07T11:41:35;1.70;;;0.40;;
6259;SDS011;3163;51.516;4.000;2022-12-07T11:46:39;0.43;;;0.43;;
6259;SDS011;3163;51.516;4.000;2022-12-07T11:49:13;1.80;;;0.40;;
6259;SDS011;3163;51.516;4.000;2022-12-07T11:51:43;0.60;;;0.60;;
6259;SDS011;3163;51.516;4.000;2022-12-07T11:57:17;0.83;;;0.53;;
6259;SDS011;3163;51.516;4.000;2022-12-07T11:59:45;2.70;;;0.50;;
6259;SDS011;3163;51.516;4.000;2022-12-07T12:02:15;0.77;;;0.50;;
6259;SDS011;3163;51.516;4.000;2022-12-07T12:07:19;1.33;;;0.40;;
6259;SDS011;3163;51.516;4.000;2022-12-07T12:09:54;0.40;;;0.40;;
6259;SDS011;3163;51.516;4.000;2022-12-07T12:15:03;0.43;;;0.43;;
6259;SDS011;3163;51.516;4.000;2022-12-07T12:20:31;0.70;;;0.30;;
6259;SDS011;3163;51.516;4.000;2022-12-07T12:25:41;0.47;;;0.47;;
6259;SDS011;3163;51.516;4.000;2022-12-07T12:28:18;0.40;;;0.40;;
6259;SDS011;3163;51.516;4.000;2022-12-07T12:30:44;2.37;;;0.60;;
6259;SDS011;3163;51.516;4.000;2022-12-07T12:33:22;0.67;;;0.43;;
6259;SDS011;3163;51.516;4.000;2022-12-07T12:44:03;0.30;;;0.30;;
6259;SDS011;3163;51.516;4.000;2022-12-07T12:51:50;0.33;;;0.33;;
6259;SDS011;3163;51.516;4.000;2022-12-07T13:01:54;0.83;;;0.40;;
6259;SDS011;3163;51.516;4.000;2022-12-07T13:06:46;0.83;;;0.53;;
6259;SDS011;3163;51.516;4.000;2022-12-07T13:09:19;0.40;;;0.30;;
6259;SDS011;3163;51.516;4.000;2022-12-07T13:11:47;1.30;;;0.50;;
6259;SDS011;3163;51.516;4.000;2022-12-07T13:16:58;2.07;;;0.70;;
6259;SDS011;3163;51.516;4.000;2022-12-07T13:19:48;0.40;;;0.40;;
6259;SDS011;3163;51.516;4.000;2022-12-07T13:27:24;0.80;;;0.60;;
6259;SDS011;3163;51.516;4.000;2022-12-07T13:29:51;0.33;;;0.33;;
6259;SDS011;3163;51.516;4.000;2022-12-07T13:32:24;0.33;;;0.33;;
6259;SDS011;3163;51.516;4.000;2022-12-07T13:34:50;0.60;;;0.60;;
6259;SDS011;3163;51.516;4.000;2022-12-07T13:37:26;0.40;;;0.40;;
6259;SDS011;3163;51.516;4.000;2022-12-07T13:39:54;1.23;;;0.60;;
6259;SDS011;3163;51.516;4.000;2022-12-07T13:42:30;0.50;;;0.50;;
6259;SDS011;3163;51.516;4.000;2022-12-07T13:44:58;1.27;;;0.80;;
6259;SDS011;3163;51.516;4.000;2022-12-07T13:49:55;0.43;;;0.40;;
6259;SDS011;3163;51.516;4.000;2022-12-07T13:54:49;0.20;;;0.20;;
6259;SDS011;3163;51.516;4.000;2022-12-07T13:57:15;0.30;;;0.30;;
6259;SDS011;3163;51.516;4.000;2022-12-07T13:59:42;0.60;;;0.60;;
6259;SDS011;3163;51.516;4.000;2022-12-07T14:02:21;0.63;;;0.37;;
6259;SDS011;3163;51.516;4.000;2022-12-07T14:04:50;1.57;;;0.60;;
6259;SDS011;3163;51.516;4.000;2022-12-07T14:09:55;0.67;;;0.60;;
6259;SDS011;3163;51.516;4.000;2022-12-07T14:12:22;4.97;;;0.60;;
6259;SDS011;3163;51.516;4.000;2022-12-07T14:14:48;0.30;;;0.30;;
6259;SDS011;3163;51.516;4.000;2022-12-07T14:17:15;0.37;;;0.37;;
6259;SDS011;3163;51.516;4.000;2022-12-07T14:19:44;0.50;;;0.50;;
6259;SDS011;3163;51.516;4.000;2022-12-07T14:22:21;1.03;;;0.73;;
6259;SDS011;3163;51.516;4.000;2022-12-07T14:24:47;0.67;;;0.40;;
6259;SDS011;3163;51.516;4.000;2022-12-07T14:27:17;1.03;;;0.40;;
6259;SDS011;3163;51.516;4.000;2022-12-07T14:29:44;0.40;;;0.40;;
6259;SDS011;3163;51.516;4.000;2022-12-07T14:32:24;1.07;;;0.40;;
6259;SDS011;3163;51.516;4.000;2022-12-07T14:37:22;1.80;;;0.40;;
6259;SDS011;3163;51.516;4.000;2022-12-07T14:39:48;0.67;;;0.30;;
6259;SDS011;3163;51.516;4.000;2022-12-07T14:42:14;0.50;;;0.50;;
6259;SDS011;3163;51.516;4.000;2022-12-07T14:44:40;0.40;;;0.40;;
6259;SDS011;3163;51.516;4.000;2022-12-07T14:47:08;1.77;;;0.80;;
6259;SDS011;3163;51.516;4.000;2022-12-07T14:49:34;1.77;;;0.77;;
6259;SDS011;3163;51.516;4.000;2022-12-07T14:52:00;3.73;;;0.70;;
6259;SDS011;3163;51.516;4.000;2022-12-07T14:54:26;2.27;;;0.87;;
6259;SDS011;3163;51.516;4.000;2022-12-07T14:56:53;1.00;;;0.50;;
6259;SDS011;3163;51.516;4.000;2022-12-07T14:59:19;0.40;;;0.40;;
6259;SDS011;3163;51.516;4.000;2022-12-07T15:01:45;3.00;;;0.40;;
6259;SDS011;3163;51.516;4.000;2022-12-07T15:04:11;0.83;;;0.60;;
6259;SDS011;3163;51.516;4.000;2022-12-07T15:06:37;1.70;;;0.50;;
6259;SDS011;3163;51.516;4.000;2022-12-07T15:09:03;1.10;;;0.60;;
6259;SDS011;3163;51.516;4.000;2022-12-07T15:11:29;0.83;;;0.60;;
6259;SDS011;3163;51.516;4.000;2022-12-07T15:13:55;0.97;;;0.50;;
6259;SDS011;3163;51.516;4.000;2022-12-07T15:16:34;0.53;;;0.53;;
6259;SDS011;3163;51.516;4.000;2022-12-07T15:19:01;0.70;;;0.50;;
6259;SDS011;3163;51.516;4.000;2022-12-07T15:21:27;0.70;;;0.70;;
6259;SDS011;3163;51.516;4.000;2022-12-07T15:23:53;0.20;;;0.20;;
6259;SDS011;3163;51.516;4.000;2022-12-07T15:26:19;4.53;;;0.47;;
6259;SDS011;3163;51.516;4.000;2022-12-07T15:28:45;1.53;;;0.87;;
6259;SDS011;3163;51.516;4.000;2022-12-07T15:31:11;0.40;;;0.40;;
6259;SDS011;3163;51.516;4.000;2022-12-07T15:33:37;0.97;;;0.60;;
6259;SDS011;3163;51.516;4.000;2022-12-07T15:36:04;0.33;;;0.33;;
6259;SDS011;3163;51.516;4.000;2022-12-07T15:38:30;0.40;;;0.40;;
6259;SDS011;3163;51.516;4.000;2022-12-07T15:40:56;0.60;;;0.60;;
6259;SDS011;3163;51.516;4.000;2022-12-07T15:43:22;2.87;;;0.50;;
6259;SDS011;3163;51.516;4.000;2022-12-07T15:46:06;1.23;;;0.50;;
6259;SDS011;3163;51.516;4.000;2022-12-07T15:48:32;0.50;;;0.50;;
6259;SDS011;3163;51.516;4.000;2022-12-07T15:51:05;0.70;;;0.60;;
6259;SDS011;3163;51.516;4.000;2022-12-07T15:53:32;0.73;;;0.73;;
6259;SDS011;3163;51.516;4.000;2022-12-07T15:55:58;0.57;;;0.40;;
6259;SDS011;3163;51.516;4.000;2022-12-07T15:58:24;0.40;;;0.40;;
6259;SDS011;3163;51.516;4.000;2022-12-07T16:00:50;0.60;;;0.50;;
6259;SDS011;3163;51.516;4.000;2022-12-07T16:03:16;1.73;;;1.37;;
6259;SDS011;3163;51.516;4.000;2022-12-07T16:05:48;2.63;;;1.60;;
6259;SDS011;3163;51.516;4.000;2022-12-07T16:08:14;4.53;;;1.90;;
6259;SDS011;3163;51.516;4.000;2022-12-07T16:10:40;1.00;;;0.70;;
6259;SDS011;3163;51.516;4.000;2022-12-07T16:13:09;2.43;;;1.13;;
6259;SDS011;3163;51.516;4.000;2022-12-07T16:15:39;1.87;;;1.10;;
6259;SDS011;3163;51.516;4.000;2022-12-07T16:18:05;1.00;;;0.77;;
6259;SDS011;3163;51.516;4.000;2022-12-07T16:20:32;0.73;;;0.73;;
6259;SDS011;3163;51.516;4.000;2022-12-07T16:22:58;0.43;;;0.43;;
6259;SDS011;3163;51.516;4.000;2022-12-07T16:25:24;1.23;;;1.03;;
6259;SDS011;3163;51.516;4.000;2022-12-07T16:27:51;0.97;;;0.87;;
6259;SDS011;3163;51.516;4.000;2022-12-07T16:30:17;3.03;;;1.20;;
6259;SDS011;3163;51.516;4.000;2022-12-07T16:32:43;0.87;;;0.87;;
6259;SDS011;3163;51.516;4.000;2022-12-07T16:35:09;2.70;;;1.20;;
6259;SDS011;3163;51.516;4.000;2022-12-07T16:37:35;1.20;;;0.90;;
6259;SDS011;3163;51.516;4.000;2022-12-07T16:40:01;3.53;;;1.17;;
6259;SDS011;3163;51.516;4.000;2022-12-07T16:42:30;2.37;;;1.30;;
6259;SDS011;3163;51.516;4.000;2022-12-07T16:44:56;5.10;;;1.30;;
6259;SDS011;3163;51.516;4.000;2022-12-07T16:47:22;1.30;;;1.10;;
6259;SDS011;3163;51.516;4.000;2022-12-07T16:49:48;1.33;;;1.00;;
6259;SDS011;3163;51.516;4.000;2022-12-07T16:52:15;2.90;;;1.10;;
6259;SDS011;3163;51.516;4.000;2022-12-07T16:54:41;0.80;;;0.80;;
6259;SDS011;3163;51.516;4.000;2022-12-07T16:57:07;1.63;;;0.87;;
6259;SDS011;3163;51.516;4.000;2022-12-07T16:59:33;3.23;;;1.17;;
6259;SDS011;3163;51.516;4.000;2022-12-07T17:01:59;2.33;;;0.80;;
6259;SDS011;3163;51.516;4.000;2022-12-07T17:04:25;1.17;;;0.97;;
6259;SDS011;3163;51.516;4.000;2022-12-07T17:06:51;0.83;;;0.70;;
6259;SDS011;3163;51.516;4.000;2022-12-07T17:09:17;0.83;;;0.83;;
6259;SDS011;3163;51.516;4.000;2022-12-07T17:11:44;1.57;;;0.80;;
6259;SDS011;3163;51.516;4.000;2022-12-07T17:14:10;0.63;;;0.60;;
6259;SDS011;3163;51.516;4.000;2022-12-07T17:16:55;1.00;;;0.83;;
6259;SDS011;3163;51.516;4.000;2022-12-07T17:19:21;0.73;;;0.63;;
6259;SDS011;3163;51.516;4.000;2022-12-07T17:21:47;1.37;;;0.93;;
6259;SDS011;3163;51.516;4.000;2022-12-07T17:24:14;1.60;;;0.60;;
6259;SDS011;3163;51.516;4.000;2022-12-07T17:26:41;0.87;;;0.87;;
6259;SDS011;3163;51.516;4.000;2022-12-07T17:29:08;0.70;;;0.70;;
6259;SDS011;3163;51.516;4.000;2022-12-07T17:31:34;1.03;;;0.93;;
6259;SDS011;3163;51.516;4.000;2022-12-07T17:34:01;1.23;;;1.13;;
6259;SDS011;3163;51.516;4.000;2022-12-07T17:36:27;0.90;;;0.90;;
6259;SDS011;3163;51.516;4.000;2022-12-07T17:38:54;0.67;;;0.67;;
6259;SDS011;3163;51.516;4.000;2022-12-07T17:41:21;0.60;;;0.60;;
6259;SDS011;3163;51.516;4.000;2022-12-07T17:44:10;0.60;;;0.60;;